createdAt,value
2022-08-26T00:02:01.535Z,100546.42
2022-08-26T00:04:31.449Z,100544.99
2022-08-26T00:07:00.292Z,100545.83
2022-08-26T00:09:29.097Z,100547.10
2022-08-26T00:11:57.442Z,100544.24
2022-08-26T00:14:31.209Z,100540.48
2022-08-26T00:17:00.483Z,100540.61
2022-08-26T00:19:29.255Z,100537.77
2022-08-26T00:21:57.578Z,100537.04
2022-08-26T00:24:26.199Z,100537.52
2022-08-26T00:26:54.511Z,100537.64
2022-08-26T00:29:22.769Z,100539.48
2022-08-26T00:31:51.790Z,100539.04
2022-08-26T00:34:20.518Z,100537.75
2022-08-26T00:36:52.092Z,100534.81
2022-08-26T00:39:21.497Z,100531.11
2022-08-26T00:41:50.838Z,100529.15
2022-08-26T00:44:19.502Z,100534.00
2022-08-26T00:46:52.837Z,100532.44
2022-08-26T00:49:35.769Z,100535.64
2022-08-26T00:52:09.802Z,100536.18
2022-08-26T00:54:46.263Z,100535.05
2022-08-26T00:57:18.253Z,100543.87
2022-08-26T00:59:50.965Z,100544.86
2022-08-26T01:02:21.319Z,100546.48
2022-08-26T01:04:55.604Z,100543.02
2022-08-26T01:07:26.360Z,100543.67
2022-08-26T01:09:56.430Z,100539.95
2022-08-26T01:12:27.938Z,100540.05
2022-08-26T01:14:56.329Z,100540.15
2022-08-26T01:17:25.047Z,100543.95
2022-08-26T01:20:00.031Z,100541.21
2022-08-26T01:22:38.768Z,100540.76
2022-08-26T01:25:07.817Z,100542.36
2022-08-26T01:27:36.520Z,100542.23
2022-08-26T01:30:07.117Z,100537.95
2022-08-26T01:32:36.059Z,100538.78
2022-08-26T01:35:09.313Z,100538.27
2022-08-26T01:37:40.418Z,100538.09
2022-08-26T01:40:18.305Z,100540.50
2022-08-26T01:42:48.562Z,100539.66
2022-08-26T01:45:22.851Z,100540.52
2022-08-26T01:47:56.797Z,100537.16
2022-08-26T01:50:30.409Z,100539.02
2022-08-26T01:53:06.239Z,100539.73
2022-08-26T01:55:36.880Z,100539.44
2022-08-26T01:58:16.996Z,100537.34
2022-08-26T02:00:46.186Z,100536.89
2022-08-26T02:03:17.281Z,100539.30
2022-08-26T02:05:51.486Z,100536.33
2022-08-26T02:08:25.311Z,100540.83
2022-08-26T02:10:55.389Z,100540.14
2022-08-26T02:13:26.733Z,100543.09
2022-08-26T02:15:57.601Z,100540.45
2022-08-26T02:18:27.931Z,100542.98
2022-08-26T02:20:57.203Z,100539.30
2022-08-26T02:23:26.167Z,100541.31
2022-08-26T02:26:00.302Z,100541.34
2022-08-26T02:28:35.509Z,100544.41
2022-08-26T02:31:04.684Z,100544.01
2022-08-26T02:33:33.331Z,100545.56
2022-08-26T02:36:05.746Z,100547.03
2022-08-26T02:38:37.302Z,100549.27
2022-08-26T02:41:09.679Z,100544.19
2022-08-26T02:43:38.751Z,100542.10
2022-08-26T02:46:07.136Z,100538.84
2022-08-26T02:48:35.523Z,100536.39
2022-08-26T02:51:04.589Z,100537.06
2022-08-26T02:53:35.509Z,100540.24
2022-08-26T02:56:07.285Z,100538.38
2022-08-26T02:58:36.066Z,100539.67
2022-08-26T03:01:05.649Z,100541.51
2022-08-26T03:03:34.834Z,100535.92
2022-08-26T03:06:03.398Z,100533.00
2022-08-26T03:08:31.695Z,100532.71
2022-08-26T03:11:01.537Z,100528.77
2022-08-26T03:13:30.512Z,100526.61
2022-08-26T03:16:01.081Z,100522.08
2022-08-26T03:18:29.909Z,100524.17
2022-08-26T03:20:59.213Z,100526.67
2022-08-26T03:23:27.649Z,100528.61
2022-08-26T03:25:56.981Z,100527.13
2022-08-26T03:28:27.238Z,100528.05
2022-08-26T03:30:56.548Z,100525.60
2022-08-26T03:33:26.386Z,100527.59
2022-08-26T03:35:55.635Z,100530.52
2022-08-26T03:38:25.302Z,100528.05
2022-08-26T03:40:55.755Z,100523.25
2022-08-26T03:43:26.563Z,100520.64
2022-08-26T03:45:54.974Z,100520.64
2022-08-26T03:48:23.301Z,100518.82
2022-08-26T03:50:51.686Z,100514.63
2022-08-26T03:53:20.560Z,100512.51
2022-08-26T03:55:51.841Z,100517.25
2022-08-26T03:58:20.600Z,100515.23
2022-08-26T04:00:49.625Z,100512.86
2022-08-26T04:03:39.134Z,100514.13
2022-08-26T04:06:08.704Z,100513.71
2022-08-26T04:08:38.361Z,100515.86
2022-08-26T04:11:07.949Z,100512.64
2022-08-26T04:13:38.766Z,100512.23
2022-08-26T04:16:07.514Z,100512.05
2022-08-26T04:18:42.084Z,100513.37
2022-08-26T04:21:15.601Z,100518.00
2022-08-26T04:23:47.079Z,100518.64
2022-08-26T04:26:19.119Z,100514.42
2022-08-26T04:28:47.570Z,100515.42
2022-08-26T04:31:19.144Z,100514.10
2022-08-26T04:33:49.564Z,100511.56
2022-08-26T04:36:20.196Z,100511.78
2022-08-26T04:38:50.214Z,100518.26
2022-08-26T04:41:20.945Z,100512.56
2022-08-26T04:43:50.052Z,100515.40
2022-08-26T04:46:23.813Z,100513.94
2022-08-26T04:48:54.574Z,100515.77
2022-08-26T04:51:27.027Z,100517.66
2022-08-26T04:53:57.948Z,100512.39
2022-08-26T04:56:27.236Z,100513.40
2022-08-26T04:58:56.716Z,100511.67
2022-08-26T05:01:25.069Z,100514.42
2022-08-26T05:03:54.406Z,100517.80
2022-08-26T05:06:22.885Z,100516.14
2022-08-26T05:08:51.378Z,100519.39
2022-08-26T05:11:21.979Z,100519.89
2022-08-26T05:13:50.462Z,100520.08
2022-08-26T05:16:18.823Z,100514.80
2022-08-26T05:18:47.541Z,100516.44
2022-08-26T05:21:21.944Z,100517.92
2022-08-26T05:23:51.413Z,100518.40
2022-08-26T05:26:23.216Z,100525.84
2022-08-26T05:28:54.698Z,100526.14
2022-08-26T05:31:26.497Z,100518.61
2022-08-26T05:33:56.976Z,100520.89
2022-08-26T05:36:28.446Z,100522.62
2022-08-26T05:38:57.598Z,100524.77
2022-08-26T05:41:36.525Z,100525.27
2022-08-26T05:44:09.458Z,100523.79
2022-08-26T05:46:39.566Z,100526.81
2022-08-26T05:49:12.621Z,100527.84
2022-08-26T05:51:45.751Z,100528.05
2022-08-26T05:54:14.878Z,100525.49
2022-08-26T05:56:51.172Z,100528.06
2022-08-26T05:59:24.121Z,100531.88
2022-08-26T06:01:54.048Z,100528.13
2022-08-26T06:04:24.984Z,100530.60
2022-08-26T06:06:55.970Z,100528.92
2022-08-26T06:09:26.113Z,100533.66
2022-08-26T06:11:55.384Z,100523.58
2022-08-26T06:14:25.419Z,100525.40
2022-08-26T06:16:55.126Z,100517.75
2022-08-26T06:19:23.782Z,100520.69
2022-08-26T06:21:54.733Z,100518.11
2022-08-26T06:24:42.149Z,100518.98
2022-08-26T06:27:13.016Z,100520.47
2022-08-26T06:29:42.042Z,100525.00
2022-08-26T06:32:10.458Z,100530.39
2022-08-26T06:34:39.352Z,100530.59
2022-08-26T06:37:08.409Z,100534.38
2022-08-26T06:39:41.035Z,100532.65
2022-08-26T06:42:10.896Z,100532.75
2022-08-26T06:44:40.982Z,100531.16
2022-08-26T06:47:09.758Z,100528.80
2022-08-26T06:49:38.127Z,100526.10
2022-08-26T06:52:08.207Z,100525.19
2022-08-26T06:54:40.993Z,100527.39
2022-08-26T06:57:10.068Z,100522.96
2022-08-26T06:59:38.691Z,100528.40
2022-08-26T07:02:08.132Z,100532.96
2022-08-26T07:04:36.936Z,100534.89
2022-08-26T07:07:05.333Z,100528.95
2022-08-26T07:09:34.829Z,100525.86
2022-08-26T07:12:06.869Z,100524.98
2022-08-26T07:14:35.781Z,100522.54
2022-08-26T07:17:04.094Z,100522.89
2022-08-26T07:19:32.538Z,100520.54
2022-08-26T07:22:04.879Z,100518.34
2022-08-26T07:24:35.477Z,100515.58
2022-08-26T07:27:07.216Z,100511.19
2022-08-26T07:29:39.185Z,100513.04
2022-08-26T07:32:09.327Z,100513.75
2022-08-26T07:34:38.800Z,100511.22
2022-08-26T07:37:08.825Z,100515.01
2022-08-26T07:39:37.509Z,100513.67
2022-08-26T07:42:13.253Z,100514.02
2022-08-26T07:44:44.696Z,100513.17
2022-08-26T07:47:25.004Z,100515.63
2022-08-26T07:49:56.819Z,100515.20
2022-08-26T07:52:27.387Z,100508.14
2022-08-26T07:54:58.535Z,100505.27
2022-08-26T07:57:28.310Z,100506.35
2022-08-26T07:59:57.349Z,100498.52
2022-08-26T08:02:27.957Z,100494.98
2022-08-26T08:04:57.494Z,100498.12
2022-08-26T08:07:38.746Z,100496.40
2022-08-26T08:10:16.626Z,100498.67
2022-08-26T08:12:45.492Z,100499.86
2022-08-26T08:15:14.942Z,100502.94
2022-08-26T08:17:45.862Z,100503.47
2022-08-26T08:20:14.820Z,100500.80
2022-08-26T08:22:44.115Z,100499.78
2022-08-26T08:25:13.283Z,100498.83
2022-08-26T08:27:44.492Z,100497.54
2022-08-26T08:30:15.504Z,100494.20
2022-08-26T08:32:52.280Z,100490.54
2022-08-26T08:35:25.265Z,100489.94
2022-08-26T08:37:54.912Z,100485.61
2022-08-26T08:40:26.515Z,100485.63
2022-08-26T08:42:59.358Z,100484.92
2022-08-26T08:45:37.104Z,100481.48
2022-08-26T08:48:12.664Z,100480.84
2022-08-26T08:50:45.295Z,100479.36
2022-08-26T08:53:18.537Z,100479.55
2022-08-26T08:56:00.227Z,100474.70
2022-08-26T08:58:42.709Z,100477.09
2022-08-26T09:01:20.413Z,100475.85
2022-08-26T09:03:55.361Z,100474.80
2022-08-26T09:06:24.968Z,100475.17
2022-08-26T09:08:57.042Z,100476.55
2022-08-26T09:11:25.360Z,100475.41
2022-08-26T09:13:55.507Z,100475.06
2022-08-26T09:16:33.021Z,100466.67
2022-08-26T09:19:05.691Z,100465.86
2022-08-26T09:21:34.354Z,100469.66
2022-08-26T09:24:02.952Z,100469.81
2022-08-26T09:26:44.797Z,100469.37
2022-08-26T09:29:22.841Z,100467.20
2022-08-26T09:31:52.359Z,100464.61
2022-08-26T09:34:23.257Z,100462.54
2022-08-26T09:36:53.197Z,100459.50
2022-08-26T09:39:37.556Z,100461.23
2022-08-26T09:42:12.709Z,100458.53
2022-08-26T09:44:57.764Z,100453.23
2022-08-26T09:47:31.542Z,100453.48
2022-08-26T09:50:09.893Z,100453.57
2022-08-26T09:52:42.589Z,100451.49
2022-08-26T09:55:21.017Z,100448.00
2022-08-26T09:57:51.450Z,100445.67
2022-08-26T10:00:29.868Z,100446.80
2022-08-26T10:03:00.191Z,100445.80
2022-08-26T10:05:34.683Z,100441.09
2022-08-26T10:08:19.962Z,100445.16
2022-08-26T10:10:53.408Z,100440.50
2022-08-26T10:13:29.537Z,100440.19
2022-08-26T10:16:10.716Z,100437.70
2022-08-26T10:18:44.710Z,100438.33
2022-08-26T10:21:18.177Z,100433.58
2022-08-26T10:23:51.691Z,100434.51
2022-08-26T10:26:25.296Z,100434.29
2022-08-26T10:29:03.073Z,100433.13
2022-08-26T10:31:40.667Z,100432.57
2022-08-26T10:34:12.524Z,100431.08
2022-08-26T10:37:14.383Z,100435.43
2022-08-26T10:39:57.159Z,100436.23
2022-08-26T10:42:34.732Z,100432.80
2022-08-26T10:45:11.908Z,100430.91
2022-08-26T10:47:51.912Z,100430.46
2022-08-26T10:50:24.695Z,100430.77
2022-08-26T10:53:00.210Z,100424.75
2022-08-26T10:55:35.589Z,100422.47
2022-08-26T10:58:26.326Z,100418.68
2022-08-26T11:01:27.720Z,100416.41
2022-08-26T11:04:04.473Z,100413.38
2022-08-26T11:06:33.201Z,100412.98
2022-08-26T11:09:08.067Z,100411.64
2022-08-26T11:11:50.605Z,100408.29
2022-08-26T11:14:34.233Z,100406.77
2022-08-26T11:17:34.890Z,100403.87
2022-08-26T11:20:09.150Z,100401.80
2022-08-26T11:22:48.078Z,100403.14
2022-08-26T11:25:18.214Z,100396.29
2022-08-26T11:27:56.925Z,100394.56
2022-08-26T11:30:57.007Z,100394.05
2022-08-26T11:33:57.568Z,100385.13
2022-08-26T11:36:42.981Z,100388.77
2022-08-26T11:39:19.778Z,100384.79
2022-08-26T11:41:52.627Z,100380.04
2022-08-26T11:44:26.476Z,100380.58
2022-08-26T11:46:57.473Z,100374.40
2022-08-26T11:49:27.694Z,100374.02
2022-08-26T11:52:10.713Z,100369.84
2022-08-26T11:54:39.655Z,100368.48
2022-08-26T11:57:13.404Z,100366.70
2022-08-26T11:59:42.945Z,100360.54
2022-08-26T12:02:16.772Z,100360.48
2022-08-26T12:04:50.739Z,100357.75
2022-08-26T12:07:24.396Z,100353.06
2022-08-26T12:09:56.665Z,100355.34
2022-08-26T12:12:34.525Z,100356.39
2022-08-26T12:15:21.732Z,100352.52
2022-08-26T12:17:54.511Z,100351.79
2022-08-26T12:20:45.447Z,100346.80
2022-08-26T12:23:26.316Z,100344.02
2022-08-26T12:26:07.217Z,100341.67
2022-08-26T12:28:43.628Z,100338.36
2022-08-26T12:31:19.436Z,100339.89
2022-08-26T12:33:49.120Z,100341.06
2022-08-26T12:36:22.320Z,100335.20
2022-08-26T12:38:50.767Z,100336.09
2022-08-26T12:41:42.405Z,100330.12
2022-08-26T12:44:34.641Z,100325.89
2022-08-26T12:47:08.751Z,100319.73
2022-08-26T12:49:39.282Z,100318.43
2022-08-26T12:52:29.588Z,100319.83
2022-08-26T12:55:00.822Z,100314.92
2022-08-26T12:57:32.647Z,100307.91
2022-08-26T13:00:30.343Z,100303.52
2022-08-26T13:03:01.281Z,100300.95
2022-08-26T13:05:33.012Z,100302.57
2022-08-26T13:08:13.430Z,100296.27
2022-08-26T13:10:44.845Z,100292.75
2022-08-26T13:13:14.680Z,100294.86
2022-08-26T13:15:44.121Z,100290.92
2022-08-26T13:18:12.466Z,100289.61
2022-08-26T13:20:44.288Z,100283.66
2022-08-26T13:23:13.058Z,100284.20
2022-08-26T13:25:42.265Z,100283.61
2022-08-26T13:28:10.718Z,100283.31
2022-08-26T13:30:40.975Z,100283.05
2022-08-26T13:33:13.744Z,100279.30
2022-08-26T13:35:43.465Z,100276.98
2022-08-26T13:38:14.480Z,100277.08
2022-08-26T13:40:59.488Z,100272.42
2022-08-26T13:43:28.633Z,100270.62
2022-08-26T13:45:57.011Z,100269.41
2022-08-26T13:48:25.750Z,100267.59
2022-08-26T13:50:54.255Z,100263.48
2022-08-26T13:53:23.086Z,100265.23
2022-08-26T13:55:51.644Z,100265.64
2022-08-26T13:58:20.181Z,100260.80
2022-08-26T14:00:49.006Z,100262.58
2022-08-26T14:03:17.877Z,100258.93
2022-08-26T14:05:46.321Z,100258.95
2022-08-26T14:08:14.698Z,100264.00
2022-08-26T14:10:44.638Z,100257.58
2022-08-26T14:13:13.879Z,100259.08
2022-08-26T14:15:42.736Z,100255.55
2022-08-26T14:18:15.544Z,100248.32
2022-08-26T14:20:49.239Z,100250.02
2022-08-26T14:23:18.651Z,100247.98
2022-08-26T14:25:47.029Z,100246.69
2022-08-26T14:28:15.371Z,100245.25
2022-08-26T14:30:47.326Z,100244.25
2022-08-26T14:33:16.199Z,100239.87
2022-08-26T14:35:48.814Z,100241.82
2022-08-26T14:38:18.043Z,100237.48
2022-08-26T14:40:46.367Z,100236.32
2022-08-26T14:43:15.519Z,100234.10
2022-08-26T14:45:45.187Z,100230.48
2022-08-26T14:48:13.656Z,100227.16
2022-08-26T14:50:42.291Z,100230.39
2022-08-26T14:53:29.435Z,100225.77
2022-08-26T14:55:58.817Z,100222.34
2022-08-26T14:58:32.920Z,100225.67
2022-08-26T15:01:04.277Z,100225.30
2022-08-26T15:03:33.001Z,100223.05
2022-08-26T15:06:01.371Z,100222.92
2022-08-26T15:08:31.486Z,100223.37
2022-08-26T15:11:00.251Z,100223.06
2022-08-26T15:13:28.638Z,100222.95
2022-08-26T15:15:57.010Z,100220.90
2022-08-26T15:18:25.961Z,100219.09
2022-08-26T15:20:54.403Z,100215.33
2022-08-26T15:23:22.760Z,100213.18
2022-08-26T15:25:51.140Z,100208.65
2022-08-26T15:28:19.453Z,100205.68
2022-08-26T15:30:50.986Z,100205.84
2022-08-26T15:33:20.855Z,100206.52
2022-08-26T15:35:49.140Z,100209.33
2022-08-26T15:38:17.858Z,100201.89
2022-08-26T15:40:46.858Z,100204.35
2022-08-26T15:43:28.146Z,100197.61
2022-08-26T15:45:58.161Z,100197.61
2022-08-26T15:48:27.880Z,100203.78
2022-08-26T15:51:02.328Z,100203.20
2022-08-26T15:53:33.769Z,100203.67
2022-08-26T15:56:02.840Z,100203.86
2022-08-26T15:58:31.743Z,100202.61
2022-08-26T16:01:00.847Z,100205.88
2022-08-26T16:03:29.870Z,100202.34
2022-08-26T16:05:58.605Z,100197.61
2022-08-26T16:08:27.050Z,100196.91
2022-08-26T16:11:03.513Z,100197.17
2022-08-26T16:13:39.586Z,100197.96
2022-08-26T16:16:09.621Z,100192.81
2022-08-26T16:18:38.625Z,100194.07
2022-08-26T16:21:13.328Z,100190.58
2022-08-26T16:23:45.243Z,100191.48
2022-08-26T16:26:26.141Z,100193.44
2022-08-26T16:28:54.909Z,100190.31
2022-08-26T16:31:23.579Z,100192.11
2022-08-26T16:33:52.291Z,100192.98
2022-08-26T16:36:20.731Z,100195.55
2022-08-26T16:38:54.236Z,100192.42
2022-08-26T16:41:23.677Z,100192.15
2022-08-26T16:43:52.120Z,100189.43
2022-08-26T16:46:23.202Z,100190.17
2022-08-26T16:48:52.147Z,100189.39
2022-08-26T16:51:23.254Z,100188.67
2022-08-26T16:53:53.423Z,100188.65
2022-08-26T16:56:24.268Z,100194.14
2022-08-26T16:59:02.717Z,100189.11
2022-08-26T17:01:31.532Z,100191.27
2022-08-26T17:04:00.146Z,100191.01
2022-08-26T17:06:29.494Z,100190.24
2022-08-26T17:08:58.052Z,100194.93
2022-08-26T17:11:26.865Z,100192.69
2022-08-26T17:13:55.305Z,100193.65
2022-08-26T17:16:26.814Z,100192.61
2022-08-26T17:18:56.437Z,100197.03
2022-08-26T17:21:25.932Z,100196.24
2022-08-26T17:23:54.776Z,100200.66
2022-08-26T17:26:23.184Z,100200.66
2022-08-26T17:28:51.572Z,100200.69
2022-08-26T17:31:21.234Z,100199.52
2022-08-26T17:33:53.915Z,100200.83
2022-08-26T17:36:27.437Z,100204.89
2022-08-26T17:38:58.237Z,100204.73
2022-08-26T17:41:27.379Z,100202.29
2022-08-26T17:43:56.581Z,100203.38
2022-08-26T17:46:25.443Z,100204.15
2022-08-26T17:48:54.355Z,100201.58
2022-08-26T17:51:23.990Z,100210.16
2022-08-26T17:53:53.190Z,100208.00
2022-08-26T17:56:25.149Z,100207.77
2022-08-26T17:58:55.554Z,100210.57
2022-08-26T18:01:26.904Z,100217.70
2022-08-26T18:04:00.179Z,100213.95
2022-08-26T18:06:30.360Z,100210.35
2022-08-26T18:09:00.029Z,100208.67
2022-08-26T18:11:29.542Z,100206.55
2022-08-26T18:13:58.549Z,100205.20
2022-08-26T18:16:27.535Z,100204.98
2022-08-26T18:18:55.968Z,100208.73
2022-08-26T18:21:27.083Z,100210.59
2022-08-26T18:23:56.342Z,100215.23
2022-08-26T18:26:27.425Z,100212.70
2022-08-26T18:28:56.845Z,100213.81
2022-08-26T18:31:26.249Z,100218.08
2022-08-26T18:33:55.359Z,100216.27
2022-08-26T18:36:26.039Z,100215.59
2022-08-26T18:38:55.091Z,100216.42
2022-08-26T18:41:25.763Z,100220.23
2022-08-26T18:43:54.676Z,100217.36
2022-08-26T18:46:25.493Z,100220.60
2022-08-26T18:48:56.535Z,100221.48
2022-08-26T18:51:32.399Z,100221.57
2022-08-26T18:54:02.775Z,100222.52
2022-08-26T18:56:32.002Z,100224.06
2022-08-26T18:59:01.027Z,100221.23
2022-08-26T19:01:31.299Z,100222.14
2022-08-26T19:04:02.406Z,100223.04
2022-08-26T19:06:34.834Z,100225.67
2022-08-26T19:09:04.985Z,100225.15
2022-08-26T19:11:37.401Z,100224.77
2022-08-26T19:14:13.480Z,100223.61
2022-08-26T19:16:44.286Z,100221.91
2022-08-26T19:19:13.081Z,100221.31
2022-08-26T19:21:44.370Z,100220.70
2022-08-26T19:24:16.835Z,100221.34
2022-08-26T19:26:47.089Z,100227.73
2022-08-26T19:31:50.232Z,100226.59
2022-08-26T19:34:20.753Z,100226.29
2022-08-26T19:36:52.500Z,100231.29
2022-08-26T19:39:21.261Z,100224.95
2022-08-26T19:41:49.737Z,100224.95
2022-08-26T19:44:35.522Z,100229.42
2022-08-26T19:47:06.465Z,100230.33
2022-08-26T19:49:35.030Z,100235.25
2022-08-26T19:52:05.452Z,100233.52
2022-08-26T19:54:34.594Z,100233.02
2022-08-26T19:57:03.376Z,100233.98
2022-08-26T19:59:32.457Z,100233.01
2022-08-26T20:02:01.953Z,100237.36
2022-08-26T20:04:31.784Z,100235.48
2022-08-26T20:07:01.751Z,100236.59
2022-08-26T20:09:31.077Z,100234.93
2022-08-26T20:11:59.791Z,100233.06
2022-08-26T20:14:29.282Z,100231.88
2022-08-26T20:16:57.948Z,100234.53
2022-08-26T20:19:44.777Z,100232.73
2022-08-26T20:22:13.544Z,100232.04
2022-08-26T20:24:44.449Z,100234.47
2022-08-26T20:27:13.418Z,100233.94
2022-08-26T20:29:43.043Z,100233.45
2022-08-26T20:32:11.795Z,100234.31
2022-08-26T20:34:40.499Z,100232.59
2022-08-26T20:37:09.205Z,100231.80
2022-08-26T20:39:37.522Z,100236.30
2022-08-26T20:42:06.512Z,100234.97
2022-08-26T20:44:54.899Z,100238.45
2022-08-26T20:47:23.783Z,100237.02
2022-08-26T20:49:54.456Z,100237.15
2022-08-26T20:52:23.305Z,100238.19
2022-08-26T20:54:51.717Z,100238.20
2022-08-26T20:57:21.739Z,100237.58
2022-08-26T20:59:50.255Z,100239.98
2022-08-26T21:02:18.682Z,100241.52
2022-08-26T21:04:47.067Z,100246.01
2022-08-26T21:07:15.568Z,100245.45
2022-08-26T21:09:46.431Z,100249.93
2022-08-26T21:12:14.827Z,100251.13
2022-08-26T21:14:47.739Z,100252.27
2022-08-26T21:17:18.178Z,100258.05
2022-08-26T21:19:46.543Z,100255.73
2022-08-26T21:22:15.056Z,100258.02
2022-08-26T21:24:43.962Z,100255.52
2022-08-26T21:27:12.413Z,100252.78
2022-08-26T21:29:46.476Z,100252.27
2022-08-26T21:32:17.503Z,100251.77
2022-08-26T21:34:46.445Z,100247.21
2022-08-26T21:37:16.411Z,100250.63
2022-08-26T21:39:45.365Z,100249.79
2022-08-26T21:42:14.213Z,100247.10
2022-08-26T21:44:44.295Z,100245.78
2022-08-26T21:47:15.101Z,100243.13
2022-08-26T21:55:17.457Z,100241.02
2022-08-26T21:57:45.875Z,100238.90
2022-08-26T22:00:18.590Z,100237.49
2022-08-26T22:02:49.789Z,100234.33
2022-08-26T22:05:18.698Z,100234.84
2022-08-26T22:07:47.239Z,100235.55
2022-08-26T22:10:15.580Z,100237.64
2022-08-26T22:12:44.129Z,100235.29
2022-08-26T22:15:13.425Z,100236.81
2022-08-26T22:17:42.113Z,100239.30
2022-08-26T22:20:16.691Z,100240.67
2022-08-26T22:22:45.623Z,100243.92
2022-08-26T22:25:14.259Z,100244.77
2022-08-26T22:27:43.115Z,100243.00
2022-08-26T22:30:13.024Z,100243.64
2022-08-26T22:32:43.203Z,100243.34
2022-08-26T22:35:28.439Z,100242.25
2022-08-26T22:37:58.864Z,100246.13
2022-08-26T22:40:27.855Z,100241.23
2022-08-26T22:42:58.781Z,100245.61
2022-08-26T22:45:31.034Z,100242.86
2022-08-26T22:48:01.117Z,100241.86
2022-08-26T22:50:29.835Z,100242.61
2022-08-26T22:52:58.347Z,100238.77
2022-08-26T22:55:26.822Z,100237.15
2022-08-26T22:57:55.547Z,100242.92
2022-08-26T23:00:31.887Z,100239.02
2022-08-26T23:03:02.452Z,100234.95
2022-08-26T23:05:31.033Z,100235.82
2022-08-26T23:07:59.648Z,100233.04
2022-08-26T23:10:28.465Z,100227.46
2022-08-26T23:12:56.939Z,100225.29
2022-08-26T23:15:25.936Z,100226.39
2022-08-26T23:17:58.439Z,100227.28
2022-08-26T23:20:28.986Z,100228.90
2022-08-26T23:22:58.092Z,100226.41
2022-08-26T23:25:28.998Z,100228.30
2022-08-26T23:27:58.792Z,100226.85
2022-08-26T23:30:29.655Z,100226.70
2022-08-26T23:32:58.427Z,100222.48
2022-08-26T23:35:28.192Z,100220.41
2022-08-26T23:37:58.336Z,100217.20
2022-08-26T23:40:31.257Z,100213.43
2022-08-26T23:43:02.740Z,100210.81
2022-08-26T23:45:32.401Z,100210.88
2022-08-26T23:48:00.874Z,100211.61
2022-08-26T23:50:45.950Z,100207.20
2022-08-26T23:53:18.938Z,100204.65
2022-08-26T23:55:48.877Z,100206.85
2022-08-26T23:58:19.020Z,100202.34
